21 a 26/10 - Lluvias y tormentas para (casi) todos

Avatar de Usuario
Ale de Castelar
Mensajes: 28411
Registrado: Sab Mar 03, 2012 12:25 pm
Ubicación: Caballito

Re: 21 a 29/10 - Lluvias y tormentas para (casi) todos

Mensaje por Ale de Castelar » Dom Oct 25, 2020 10:25 pm

San Bernardo, Chaco

Avatar de Usuario
Diecha
Mensajes: 15104
Registrado: Jue Ago 25, 2011 9:31 pm
Ubicación: Lomas de Zamora

Re: 21 a 29/10 - Lluvias y tormentas para (casi) todos

Mensaje por Diecha » Dom Oct 25, 2020 10:32 pm

- Formosa 22 hs: SARF 260100Z 07010KT CAVOK 33/20 Q1000
- Resistencia 22 hs: SARE 260100Z 14011KT 5000 TSRA FEW050CB OVC060 24/21 Q1001

Imagen
Imagen

Avatar de Usuario
Ale de Castelar
Mensajes: 28411
Registrado: Sab Mar 03, 2012 12:25 pm
Ubicación: Caballito

Re: 21 a 29/10 - Lluvias y tormentas para (casi) todos

Mensaje por Ale de Castelar » Dom Oct 25, 2020 10:54 pm

Goya


Avatar de Usuario
Diecha
Mensajes: 15104
Registrado: Jue Ago 25, 2011 9:31 pm
Ubicación: Lomas de Zamora

Re: 21 a 29/10 - Lluvias y tormentas para (casi) todos

Mensaje por Diecha » Dom Oct 25, 2020 10:59 pm

Atardecer en Santa Fe:
Imagen
Imagen
Imagen
Imagen
www.instagram.com/p/CGyeceaHIlH/
Última edición por Diecha el Dom Oct 25, 2020 11:32 pm, editado 1 vez en total.

dariusg
Mensajes: 3413
Registrado: Mar Feb 02, 2010 12:45 pm
Ubicación: Paraná, Entre Ríos

Re: 21 a 29/10 - Lluvias y tormentas para (casi) todos

Mensaje por dariusg » Dom Oct 25, 2020 11:31 pm

rafagas de 70 km sobre corrientes capital ahora

Avatar de Usuario
Diecha
Mensajes: 15104
Registrado: Jue Ago 25, 2011 9:31 pm
Ubicación: Lomas de Zamora

Re: 21 a 29/10 - Lluvias y tormentas para (casi) todos

Mensaje por Diecha » Dom Oct 25, 2020 11:37 pm

- Resistencia 23 hs: SARE 260200Z 18032G49KT 3500 +TSRA SCT004 OVC030 FEW050CB 21/21 Q1004 (ráfaga de 91 Km/h)

Avatar de Usuario
Ale de Castelar
Mensajes: 28411
Registrado: Sab Mar 03, 2012 12:25 pm
Ubicación: Caballito

Re: 21 a 29/10 - Lluvias y tormentas para (casi) todos

Mensaje por Ale de Castelar » Dom Oct 25, 2020 11:45 pm

Resistencia


Avatar de Usuario
Diecha
Mensajes: 15104
Registrado: Jue Ago 25, 2011 9:31 pm
Ubicación: Lomas de Zamora

Re: 21 a 29/10 - Lluvias y tormentas para (casi) todos

Mensaje por Diecha » Dom Oct 25, 2020 11:46 pm


Avatar de Usuario
Ale de Castelar
Mensajes: 28411
Registrado: Sab Mar 03, 2012 12:25 pm
Ubicación: Caballito

Re: 21 a 29/10 - Lluvias y tormentas para (casi) todos

Mensaje por Ale de Castelar » Dom Oct 25, 2020 11:47 pm

Pampa del Infierno

Avatar de Usuario
Diecha
Mensajes: 15104
Registrado: Jue Ago 25, 2011 9:31 pm
Ubicación: Lomas de Zamora

Re: 21 a 29/10 - Lluvias y tormentas para (casi) todos

Mensaje por Diecha » Dom Oct 25, 2020 11:51 pm


Responder